sensor_id;sensor_type;location;lat;lon;timestamp;P1;durP1;ratioP1;P2;durP2;ratioP2
16642;SDS011;8435;52.184;5.406;2024-03-02T00:01:05;31.07;;;15.50;;
16642;SDS011;8435;52.184;5.406;2024-03-02T00:03:32;17.27;;;7.13;;
16642;SDS011;8435;52.184;5.406;2024-03-02T00:05:59;8.50;;;3.70;;
16642;SDS011;8435;52.184;5.406;2024-03-02T00:08:26;9.17;;;4.43;;
16642;SDS011;8435;52.184;5.406;2024-03-02T00:10:56;4.83;;;2.30;;
16642;SDS011;8435;52.184;5.406;2024-03-02T00:13:24;8.00;;;3.03;;
16642;SDS011;8435;52.184;5.406;2024-03-02T00:15:51;2.10;;;1.43;;
16642;SDS011;8435;52.184;5.406;2024-03-02T00:18:26;2.90;;;1.37;;
16642;SDS011;8435;52.184;5.406;2024-03-02T00:20:57;1.57;;;1.30;;
16642;SDS011;8435;52.184;5.406;2024-03-02T00:23:27;1.87;;;1.57;;
16642;SDS011;8435;52.184;5.406;2024-03-02T00:25:56;2.13;;;1.20;;
16642;SDS011;8435;52.184;5.406;2024-03-02T00:28:24;1.43;;;1.20;;
16642;SDS011;8435;52.184;5.406;2024-03-02T00:30:54;2.47;;;1.30;;
16642;SDS011;8435;52.184;5.406;2024-03-02T00:33:25;2.80;;;1.00;;
16642;SDS011;8435;52.184;5.406;2024-03-02T00:35:56;1.27;;;1.17;;
16642;SDS011;8435;52.184;5.406;2024-03-02T00:38:24;1.47;;;1.07;;
16642;SDS011;8435;52.184;5.406;2024-03-02T00:40:52;1.60;;;1.27;;
16642;SDS011;8435;52.184;5.406;2024-03-02T00:46:09;2.23;;;1.30;;
16642;SDS011;8435;52.184;5.406;2024-03-02T00:48:39;2.23;;;0.90;;
16642;SDS011;8435;52.184;5.406;2024-03-02T00:51:10;2.07;;;1.17;;
16642;SDS011;8435;52.184;5.406;2024-03-02T00:53:37;1.27;;;0.93;;
16642;SDS011;8435;52.184;5.406;2024-03-02T00:56:04;1.10;;;0.77;;
16642;SDS011;8435;52.184;5.406;2024-03-02T00:58:36;1.50;;;1.00;;
16642;SDS011;8435;52.184;5.406;2024-03-02T01:01:03;0.80;;;0.50;;
16642;SDS011;8435;52.184;5.406;2024-03-02T01:03:30;0.77;;;0.50;;
16642;SDS011;8435;52.184;5.406;2024-03-02T01:05:59;0.80;;;0.60;;
16642;SDS011;8435;52.184;5.406;2024-03-02T01:08:25;0.60;;;0.60;;
16642;SDS011;8435;52.184;5.406;2024-03-02T01:10:52;0.50;;;0.50;;
16642;SDS011;8435;52.184;5.406;2024-03-02T01:13:20;0.50;;;0.50;;
16642;SDS011;8435;52.184;5.406;2024-03-02T01:15:48;0.50;;;0.50;;
16642;SDS011;8435;52.184;5.406;2024-03-02T01:18:15;0.60;;;0.50;;
16642;SDS011;8435;52.184;5.406;2024-03-02T01:20:42;0.50;;;0.40;;
16642;SDS011;8435;52.184;5.406;2024-03-02T01:23:10;0.60;;;0.60;;
16642;SDS011;8435;52.184;5.406;2024-03-02T01:25:37;0.30;;;0.30;;
16642;SDS011;8435;52.184;5.406;2024-03-02T01:28:04;0.40;;;0.40;;
16642;SDS011;8435;52.184;5.406;2024-03-02T01:30:31;1.07;;;0.50;;
16642;SDS011;8435;52.184;5.406;2024-03-02T01:32:58;0.53;;;0.40;;
16642;SDS011;8435;52.184;5.406;2024-03-02T01:35:25;0.40;;;0.40;;
16642;SDS011;8435;52.184;5.406;2024-03-02T01:37:52;1.27;;;1.17;;
16642;SDS011;8435;52.184;5.406;2024-03-02T01:40:20;1.77;;;1.50;;
16642;SDS011;8435;52.184;5.406;2024-03-02T01:42:51;0.87;;;0.80;;
16642;SDS011;8435;52.184;5.406;2024-03-02T01:45:19;0.60;;;0.60;;
16642;SDS011;8435;52.184;5.406;2024-03-02T01:47:46;0.60;;;0.60;;
16642;SDS011;8435;52.184;5.406;2024-03-02T01:50:13;0.83;;;0.83;;
16642;SDS011;8435;52.184;5.406;2024-03-02T01:52:40;0.87;;;0.53;;
16642;SDS011;8435;52.184;5.406;2024-03-02T01:55:09;0.70;;;0.50;;
16642;SDS011;8435;52.184;5.406;2024-03-02T01:57:37;0.50;;;0.50;;
16642;SDS011;8435;52.184;5.406;2024-03-02T02:00:04;0.50;;;0.50;;
16642;SDS011;8435;52.184;5.406;2024-03-02T02:02:34;0.30;;;0.30;;
16642;SDS011;8435;52.184;5.406;2024-03-02T02:05:01;0.70;;;0.70;;
16642;SDS011;8435;52.184;5.406;2024-03-02T02:07:28;0.50;;;0.40;;
16642;SDS011;8435;52.184;5.406;2024-03-02T02:09:55;0.40;;;0.40;;
16642;SDS011;8435;52.184;5.406;2024-03-02T02:12:22;1.10;;;0.50;;
16642;SDS011;8435;52.184;5.406;2024-03-02T02:14:50;1.17;;;1.07;;
16642;SDS011;8435;52.184;5.406;2024-03-02T02:17:17;0.53;;;0.53;;
16642;SDS011;8435;52.184;5.406;2024-03-02T02:19:44;0.63;;;0.50;;
16642;SDS011;8435;52.184;5.406;2024-03-02T02:22:12;1.03;;;0.50;;
16642;SDS011;8435;52.184;5.406;2024-03-02T02:24:39;0.77;;;0.60;;
16642;SDS011;8435;52.184;5.406;2024-03-02T02:27:06;0.50;;;0.50;;
16642;SDS011;8435;52.184;5.406;2024-03-02T02:29:33;0.70;;;0.50;;
16642;SDS011;8435;52.184;5.406;2024-03-02T02:32:00;0.43;;;0.43;;
16642;SDS011;8435;52.184;5.406;2024-03-02T02:34:27;0.50;;;0.50;;
16642;SDS011;8435;52.184;5.406;2024-03-02T02:36:54;0.60;;;0.60;;
16642;SDS011;8435;52.184;5.406;2024-03-02T02:39:23;0.30;;;0.30;;
16642;SDS011;8435;52.184;5.406;2024-03-02T02:41:49;0.70;;;0.50;;
16642;SDS011;8435;52.184;5.406;2024-03-02T02:44:16;0.40;;;0.40;;
16642;SDS011;8435;52.184;5.406;2024-03-02T02:46:43;0.50;;;0.50;;
16642;SDS011;8435;52.184;5.406;2024-03-02T02:49:10;0.40;;;0.40;;
16642;SDS011;8435;52.184;5.406;2024-03-02T02:51:37;0.40;;;0.40;;
16642;SDS011;8435;52.184;5.406;2024-03-02T02:54:03;0.30;;;0.30;;
16642;SDS011;8435;52.184;5.406;2024-03-02T02:56:32;0.30;;;0.30;;
16642;SDS011;8435;52.184;5.406;2024-03-02T02:58:59;0.53;;;0.53;;
16642;SDS011;8435;52.184;5.406;2024-03-02T03:01:25;0.57;;;0.50;;
16642;SDS011;8435;52.184;5.406;2024-03-02T03:03:52;0.43;;;0.43;;
16642;SDS011;8435;52.184;5.406;2024-03-02T03:06:19;0.80;;;0.60;;
16642;SDS011;8435;52.184;5.406;2024-03-02T03:08:46;0.40;;;0.40;;
16642;SDS011;8435;52.184;5.406;2024-03-02T03:11:13;0.50;;;0.50;;
16642;SDS011;8435;52.184;5.406;2024-03-02T03:13:41;0.40;;;0.40;;
16642;SDS011;8435;52.184;5.406;2024-03-02T03:16:08;0.50;;;0.50;;
16642;SDS011;8435;52.184;5.406;2024-03-02T03:18:35;0.60;;;0.60;;
16642;SDS011;8435;52.184;5.406;2024-03-02T03:21:03;0.47;;;0.30;;
16642;SDS011;8435;52.184;5.406;2024-03-02T03:23:30;0.77;;;0.50;;
16642;SDS011;8435;52.184;5.406;2024-03-02T03:25:57;1.37;;;0.50;;
16642;SDS011;8435;52.184;5.406;2024-03-02T03:28:25;1.23;;;0.40;;
16642;SDS011;8435;52.184;5.406;2024-03-02T03:30:53;0.50;;;0.50;;
16642;SDS011;8435;52.184;5.406;2024-03-02T03:33:19;0.47;;;0.27;;
16642;SDS011;8435;52.184;5.406;2024-03-02T03:35:46;0.30;;;0.30;;
16642;SDS011;8435;52.184;5.406;2024-03-02T03:38:13;0.60;;;0.57;;
16642;SDS011;8435;52.184;5.406;2024-03-02T03:40:40;0.43;;;0.40;;
16642;SDS011;8435;52.184;5.406;2024-03-02T03:43:07;0.50;;;0.50;;
16642;SDS011;8435;52.184;5.406;2024-03-02T03:45:33;0.40;;;0.33;;
16642;SDS011;8435;52.184;5.406;2024-03-02T03:48:02;0.37;;;0.30;;
16642;SDS011;8435;52.184;5.406;2024-03-02T03:50:29;0.60;;;0.60;;
16642;SDS011;8435;52.184;5.406;2024-03-02T03:52:55;0.50;;;0.50;;
16642;SDS011;8435;52.184;5.406;2024-03-02T03:55:22;0.30;;;0.30;;
16642;SDS011;8435;52.184;5.406;2024-03-02T03:57:49;0.40;;;0.30;;
16642;SDS011;8435;52.184;5.406;2024-03-02T04:00:15;2.67;;;0.50;;
16642;SDS011;8435;52.184;5.406;2024-03-02T04:02:42;0.43;;;0.33;;
16642;SDS011;8435;52.184;5.406;2024-03-02T04:05:10;0.37;;;0.37;;
16642;SDS011;8435;52.184;5.406;2024-03-02T04:07:37;0.40;;;0.40;;
16642;SDS011;8435;52.184;5.406;2024-03-02T04:10:08;0.33;;;0.30;;
16642;SDS011;8435;52.184;5.406;2024-03-02T04:12:35;0.30;;;0.30;;
16642;SDS011;8435;52.184;5.406;2024-03-02T04:15:03;0.40;;;0.40;;
16642;SDS011;8435;52.184;5.406;2024-03-02T04:17:31;0.67;;;0.30;;
16642;SDS011;8435;52.184;5.406;2024-03-02T04:20:00;0.50;;;0.30;;
16642;SDS011;8435;52.184;5.406;2024-03-02T04:22:32;0.30;;;0.30;;
16642;SDS011;8435;52.184;5.406;2024-03-02T04:25:00;0.30;;;0.30;;
16642;SDS011;8435;52.184;5.406;2024-03-02T04:27:29;0.30;;;0.30;;
16642;SDS011;8435;52.184;5.406;2024-03-02T04:29:56;0.60;;;0.40;;
16642;SDS011;8435;52.184;5.406;2024-03-02T04:32:23;0.30;;;0.30;;
16642;SDS011;8435;52.184;5.406;2024-03-02T04:34:50;1.17;;;0.40;;
16642;SDS011;8435;52.184;5.406;2024-03-02T04:37:17;0.40;;;0.40;;
16642;SDS011;8435;52.184;5.406;2024-03-02T04:39:45;0.40;;;0.40;;
16642;SDS011;8435;52.184;5.406;2024-03-02T04:42:12;0.53;;;0.40;;
16642;SDS011;8435;52.184;5.406;2024-03-02T04:44:38;0.83;;;0.50;;
16642;SDS011;8435;52.184;5.406;2024-03-02T04:47:05;0.37;;;0.37;;
16642;SDS011;8435;52.184;5.406;2024-03-02T04:49:32;0.50;;;0.30;;
16642;SDS011;8435;52.184;5.406;2024-03-02T04:51:59;0.40;;;0.33;;
16642;SDS011;8435;52.184;5.406;2024-03-02T04:54:25;1.03;;;0.40;;
16642;SDS011;8435;52.184;5.406;2024-03-02T04:56:54;0.50;;;0.40;;
16642;SDS011;8435;52.184;5.406;2024-03-02T04:59:20;0.50;;;0.40;;
16642;SDS011;8435;52.184;5.406;2024-03-02T05:01:48;1.00;;;0.40;;
16642;SDS011;8435;52.184;5.406;2024-03-02T05:04:14;0.40;;;0.40;;
16642;SDS011;8435;52.184;5.406;2024-03-02T05:06:41;0.60;;;0.50;;
16642;SDS011;8435;52.184;5.406;2024-03-02T05:09:08;0.50;;;0.40;;
16642;SDS011;8435;52.184;5.406;2024-03-02T05:11:35;0.50;;;0.50;;
16642;SDS011;8435;52.184;5.406;2024-03-02T05:14:26;0.80;;;0.50;;
16642;SDS011;8435;52.184;5.406;2024-03-02T05:16:54;1.20;;;0.50;;
16642;SDS011;8435;52.184;5.406;2024-03-02T05:19:21;0.70;;;0.70;;
16642;SDS011;8435;52.184;5.406;2024-03-02T05:21:48;0.63;;;0.40;;
16642;SDS011;8435;52.184;5.406;2024-03-02T05:24:15;0.40;;;0.40;;
16642;SDS011;8435;52.184;5.406;2024-03-02T05:26:41;0.87;;;0.40;;
16642;SDS011;8435;52.184;5.406;2024-03-02T05:29:08;0.40;;;0.30;;
16642;SDS011;8435;52.184;5.406;2024-03-02T05:31:36;0.63;;;0.40;;
16642;SDS011;8435;52.184;5.406;2024-03-02T05:34:03;0.93;;;0.60;;
16642;SDS011;8435;52.184;5.406;2024-03-02T05:36:30;0.50;;;0.43;;
16642;SDS011;8435;52.184;5.406;2024-03-02T05:38:57;0.43;;;0.43;;
16642;SDS011;8435;52.184;5.406;2024-03-02T05:41:24;0.40;;;0.40;;
16642;SDS011;8435;52.184;5.406;2024-03-02T05:43:50;1.60;;;0.50;;
16642;SDS011;8435;52.184;5.406;2024-03-02T05:46:17;1.60;;;0.50;;
16642;SDS011;8435;52.184;5.406;2024-03-02T05:48:45;0.87;;;0.47;;
16642;SDS011;8435;52.184;5.406;2024-03-02T05:51:12;1.13;;;0.50;;
16642;SDS011;8435;52.184;5.406;2024-03-02T05:53:39;0.83;;;0.57;;
16642;SDS011;8435;52.184;5.406;2024-03-02T05:56:07;1.27;;;0.60;;
16642;SDS011;8435;52.184;5.406;2024-03-02T05:58:33;0.60;;;0.40;;
16642;SDS011;8435;52.184;5.406;2024-03-02T06:01:13;1.83;;;0.50;;
16642;SDS011;8435;52.184;5.406;2024-03-02T06:03:39;0.80;;;0.57;;
16642;SDS011;8435;52.184;5.406;2024-03-02T06:06:08;0.80;;;0.50;;
16642;SDS011;8435;52.184;5.406;2024-03-02T06:08:35;2.30;;;0.50;;
16642;SDS011;8435;52.184;5.406;2024-03-02T06:11:01;0.90;;;0.40;;
16642;SDS011;8435;52.184;5.406;2024-03-02T06:13:29;0.80;;;0.40;;
16642;SDS011;8435;52.184;5.406;2024-03-02T06:15:58;1.57;;;0.60;;
16642;SDS011;8435;52.184;5.406;2024-03-02T06:18:25;2.70;;;0.77;;
16642;SDS011;8435;52.184;5.406;2024-03-02T06:20:52;0.97;;;0.50;;
16642;SDS011;8435;52.184;5.406;2024-03-02T06:23:21;1.17;;;0.60;;
16642;SDS011;8435;52.184;5.406;2024-03-02T06:25:47;1.00;;;0.30;;
16642;SDS011;8435;52.184;5.406;2024-03-02T06:28:14;1.03;;;0.40;;
16642;SDS011;8435;52.184;5.406;2024-03-02T06:30:41;1.47;;;0.57;;
16642;SDS011;8435;52.184;5.406;2024-03-02T06:33:08;0.77;;;0.40;;
16642;SDS011;8435;52.184;5.406;2024-03-02T06:35:35;1.23;;;0.60;;
16642;SDS011;8435;52.184;5.406;2024-03-02T06:38:01;0.70;;;0.63;;
16642;SDS011;8435;52.184;5.406;2024-03-02T06:40:30;1.27;;;0.60;;
16642;SDS011;8435;52.184;5.406;2024-03-02T06:42:57;0.83;;;0.70;;
16642;SDS011;8435;52.184;5.406;2024-03-02T06:45:23;1.60;;;0.70;;
16642;SDS011;8435;52.184;5.406;2024-03-02T06:47:50;0.80;;;0.40;;
16642;SDS011;8435;52.184;5.406;2024-03-02T06:50:17;0.57;;;0.50;;
16642;SDS011;8435;52.184;5.406;2024-03-02T06:52:44;0.40;;;0.40;;
16642;SDS011;8435;52.184;5.406;2024-03-02T06:55:10;0.87;;;0.60;;
16642;SDS011;8435;52.184;5.406;2024-03-02T06:57:38;1.23;;;0.63;;
16642;SDS011;8435;52.184;5.406;2024-03-02T07:00:06;0.50;;;0.50;;
16642;SDS011;8435;52.184;5.406;2024-03-02T07:02:34;0.60;;;0.50;;
16642;SDS011;8435;52.184;5.406;2024-03-02T07:05:01;1.67;;;0.60;;
16642;SDS011;8435;52.184;5.406;2024-03-02T07:07:28;0.47;;;0.47;;
16642;SDS011;8435;52.184;5.406;2024-03-02T07:09:54;2.13;;;0.60;;
16642;SDS011;8435;52.184;5.406;2024-03-02T07:12:21;1.33;;;0.60;;
16642;SDS011;8435;52.184;5.406;2024-03-02T07:14:49;1.13;;;0.70;;
16642;SDS011;8435;52.184;5.406;2024-03-02T07:17:50;0.73;;;0.73;;
16642;SDS011;8435;52.184;5.406;2024-03-02T07:20:16;1.77;;;0.97;;
16642;SDS011;8435;52.184;5.406;2024-03-02T07:22:43;0.77;;;0.73;;
16642;SDS011;8435;52.184;5.406;2024-03-02T07:25:10;2.30;;;0.83;;
16642;SDS011;8435;52.184;5.406;2024-03-02T07:27:37;0.87;;;0.67;;
16642;SDS011;8435;52.184;5.406;2024-03-02T07:30:06;1.07;;;0.70;;
16642;SDS011;8435;52.184;5.406;2024-03-02T07:32:33;0.97;;;0.70;;
16642;SDS011;8435;52.184;5.406;2024-03-02T07:35:00;0.60;;;0.60;;
16642;SDS011;8435;52.184;5.406;2024-03-02T07:37:28;1.20;;;0.70;;
16642;SDS011;8435;52.184;5.406;2024-03-02T07:39:55;0.60;;;0.60;;
16642;SDS011;8435;52.184;5.406;2024-03-02T07:42:22;0.57;;;0.50;;
16642;SDS011;8435;52.184;5.406;2024-03-02T07:44:49;0.50;;;0.50;;
16642;SDS011;8435;52.184;5.406;2024-03-02T07:47:17;2.10;;;0.70;;
16642;SDS011;8435;52.184;5.406;2024-03-02T07:49:44;1.30;;;0.60;;
16642;SDS011;8435;52.184;5.406;2024-03-02T07:52:11;0.93;;;0.50;;
16642;SDS011;8435;52.184;5.406;2024-03-02T07:54:38;0.63;;;0.50;;
16642;SDS011;8435;52.184;5.406;2024-03-02T07:57:05;1.20;;;0.83;;
16642;SDS011;8435;52.184;5.406;2024-03-02T07:59:32;0.60;;;0.60;;
16642;SDS011;8435;52.184;5.406;2024-03-02T08:01:59;1.63;;;0.80;;
16642;SDS011;8435;52.184;5.406;2024-03-02T08:04:27;2.10;;;1.30;;
16642;SDS011;8435;52.184;5.406;2024-03-02T08:06:54;1.13;;;0.70;;
16642;SDS011;8435;52.184;5.406;2024-03-02T08:09:21;1.77;;;0.70;;
16642;SDS011;8435;52.184;5.406;2024-03-02T08:11:47;1.73;;;0.90;;
16642;SDS011;8435;52.184;5.406;2024-03-02T08:14:14;0.43;;;0.40;;
16642;SDS011;8435;52.184;5.406;2024-03-02T08:16:41;1.57;;;0.73;;
16642;SDS011;8435;52.184;5.406;2024-03-02T08:19:08;1.03;;;0.67;;
16642;SDS011;8435;52.184;5.406;2024-03-02T08:21:36;1.20;;;0.70;;
16642;SDS011;8435;52.184;5.406;2024-03-02T08:24:03;1.80;;;0.90;;
16642;SDS011;8435;52.184;5.406;2024-03-02T08:26:31;3.00;;;0.70;;
16642;SDS011;8435;52.184;5.406;2024-03-02T08:28:58;1.53;;;0.70;;
16642;SDS011;8435;52.184;5.406;2024-03-02T08:31:26;1.30;;;0.60;;
16642;SDS011;8435;52.184;5.406;2024-03-02T08:33:53;1.10;;;0.57;;
16642;SDS011;8435;52.184;5.406;2024-03-02T08:36:20;1.00;;;0.60;;
16642;SDS011;8435;52.184;5.406;2024-03-02T08:38:49;1.77;;;1.20;;
16642;SDS011;8435;52.184;5.406;2024-03-02T08:41:16;5.47;;;3.23;;
16642;SDS011;8435;52.184;5.406;2024-03-02T08:43:43;2.00;;;1.67;;
16642;SDS011;8435;52.184;5.406;2024-03-02T08:46:10;1.23;;;0.97;;
16642;SDS011;8435;52.184;5.406;2024-03-02T08:48:37;0.60;;;0.57;;
16642;SDS011;8435;52.184;5.406;2024-03-02T08:51:04;0.67;;;0.63;;
16642;SDS011;8435;52.184;5.406;2024-03-02T08:53:32;2.83;;;1.20;;
16642;SDS011;8435;52.184;5.406;2024-03-02T08:56:01;1.57;;;0.70;;
16642;SDS011;8435;52.184;5.406;2024-03-02T08:58:30;1.83;;;0.77;;
16642;SDS011;8435;52.184;5.406;2024-03-02T09:00:57;1.80;;;0.70;;
16642;SDS011;8435;52.184;5.406;2024-03-02T09:03:24;1.27;;;0.70;;
16642;SDS011;8435;52.184;5.406;2024-03-02T09:05:50;2.30;;;0.93;;
16642;SDS011;8435;52.184;5.406;2024-03-02T09:08:17;1.60;;;0.60;;
16642;SDS011;8435;52.184;5.406;2024-03-02T09:10:44;0.77;;;0.57;;
16642;SDS011;8435;52.184;5.406;2024-03-02T09:13:12;1.60;;;1.10;;
16642;SDS011;8435;52.184;5.406;2024-03-02T09:15:39;1.57;;;0.60;;
16642;SDS011;8435;52.184;5.406;2024-03-02T09:18:06;0.90;;;0.70;;
16642;SDS011;8435;52.184;5.406;2024-03-02T09:20:33;1.03;;;0.90;;
16642;SDS011;8435;52.184;5.406;2024-03-02T09:23:00;1.50;;;1.00;;
16642;SDS011;8435;52.184;5.406;2024-03-02T09:25:26;2.00;;;0.80;;
16642;SDS011;8435;52.184;5.406;2024-03-02T09:27:53;1.93;;;0.90;;
16642;SDS011;8435;52.184;5.406;2024-03-02T09:30:21;1.83;;;0.67;;
16642;SDS011;8435;52.184;5.406;2024-03-02T09:32:48;1.67;;;0.80;;
16642;SDS011;8435;52.184;5.406;2024-03-02T09:35:15;1.47;;;0.80;;
16642;SDS011;8435;52.184;5.406;2024-03-02T09:37:43;3.40;;;0.80;;
16642;SDS011;8435;52.184;5.406;2024-03-02T09:40:10;3.03;;;1.00;;
16642;SDS011;8435;52.184;5.406;2024-03-02T09:42:37;1.63;;;0.70;;
16642;SDS011;8435;52.184;5.406;2024-03-02T09:45:05;0.57;;;0.50;;
16642;SDS011;8435;52.184;5.406;2024-03-02T09:47:33;2.60;;;0.73;;
16642;SDS011;8435;52.184;5.406;2024-03-02T09:50:00;1.70;;;0.93;;
16642;SDS011;8435;52.184;5.406;2024-03-02T09:52:28;3.93;;;0.70;;
16642;SDS011;8435;52.184;5.406;2024-03-02T09:54:56;2.47;;;1.10;;
16642;SDS011;8435;52.184;5.406;2024-03-02T09:57:23;1.30;;;0.70;;
16642;SDS011;8435;52.184;5.406;2024-03-02T09:59:50;3.03;;;0.87;;
16642;SDS011;8435;52.184;5.406;2024-03-02T10:02:17;1.97;;;0.70;;
16642;SDS011;8435;52.184;5.406;2024-03-02T10:04:45;3.00;;;1.00;;
16642;SDS011;8435;52.184;5.406;2024-03-02T10:07:15;2.93;;;1.03;;
16642;SDS011;8435;52.184;5.406;2024-03-02T10:09:43;3.67;;;0.80;;
16642;SDS011;8435;52.184;5.406;2024-03-02T10:12:12;2.50;;;1.00;;
16642;SDS011;8435;52.184;5.406;2024-03-02T10:14:39;1.33;;;0.90;;
16642;SDS011;8435;52.184;5.406;2024-03-02T10:17:07;2.90;;;1.00;;
16642;SDS011;8435;52.184;5.406;2024-03-02T10:19:35;1.33;;;0.83;;
16642;SDS011;8435;52.184;5.406;2024-03-02T10:22:04;2.43;;;1.07;;
16642;SDS011;8435;52.184;5.406;2024-03-02T10:24:35;1.70;;;0.90;;
16642;SDS011;8435;52.184;5.406;2024-03-02T10:27:10;1.77;;;0.80;;
16642;SDS011;8435;52.184;5.406;2024-03-02T10:29:42;2.43;;;1.00;;
16642;SDS011;8435;52.184;5.406;2024-03-02T10:32:11;1.70;;;0.90;;
16642;SDS011;8435;52.184;5.406;2024-03-02T10:34:39;2.30;;;0.90;;
16642;SDS011;8435;52.184;5.406;2024-03-02T10:37:08;3.27;;;1.00;;
16642;SDS011;8435;52.184;5.406;2024-03-02T10:39:36;1.90;;;1.07;;
16642;SDS011;8435;52.184;5.406;2024-03-02T10:42:05;3.30;;;0.97;;
16642;SDS011;8435;52.184;5.406;2024-03-02T10:44:32;3.07;;;0.93;;
16642;SDS011;8435;52.184;5.406;2024-03-02T10:47:00;2.17;;;0.90;;
16642;SDS011;8435;52.184;5.406;2024-03-02T10:49:28;6.00;;;2.57;;
16642;SDS011;8435;52.184;5.406;2024-03-02T10:51:57;2.83;;;1.50;;
16642;SDS011;8435;52.184;5.406;2024-03-02T10:54:25;4.40;;;2.33;;
16642;SDS011;8435;52.184;5.406;2024-03-02T10:56:54;2.33;;;1.40;;
16642;SDS011;8435;52.184;5.406;2024-03-02T10:59:26;1.53;;;1.03;;
16642;SDS011;8435;52.184;5.406;2024-03-02T11:01:56;1.57;;;0.87;;
16642;SDS011;8435;52.184;5.406;2024-03-02T11:04:24;1.93;;;0.90;;
16642;SDS011;8435;52.184;5.406;2024-03-02T11:06:54;2.10;;;0.97;;
16642;SDS011;8435;52.184;5.406;2024-03-02T11:09:27;3.57;;;1.27;;
16642;SDS011;8435;52.184;5.406;2024-03-02T11:11:56;0.90;;;0.80;;
16642;SDS011;8435;52.184;5.406;2024-03-02T11:14:30;1.37;;;0.70;;
16642;SDS011;8435;52.184;5.406;2024-03-02T11:16:58;1.30;;;0.63;;
16642;SDS011;8435;52.184;5.406;2024-03-02T11:19:26;2.40;;;0.80;;
16642;SDS011;8435;52.184;5.406;2024-03-02T11:21:54;2.00;;;1.00;;
16642;SDS011;8435;52.184;5.406;2024-03-02T11:24:29;2.57;;;0.90;;
16642;SDS011;8435;52.184;5.406;2024-03-02T11:27:00;1.80;;;0.60;;
16642;SDS011;8435;52.184;5.406;2024-03-02T11:29:45;2.03;;;0.87;;
16642;SDS011;8435;52.184;5.406;2024-03-02T11:32:16;3.50;;;1.10;;
16642;SDS011;8435;52.184;5.406;2024-03-02T11:34:45;1.30;;;0.77;;
16642;SDS011;8435;52.184;5.406;2024-03-02T11:37:12;0.70;;;0.70;;
16642;SDS011;8435;52.184;5.406;2024-03-02T11:39:42;2.63;;;0.83;;
16642;SDS011;8435;52.184;5.406;2024-03-02T11:42:10;1.30;;;0.60;;
16642;SDS011;8435;52.184;5.406;2024-03-02T11:44:39;0.90;;;0.60;;
16642;SDS011;8435;52.184;5.406;2024-03-02T11:47:08;2.30;;;1.43;;
16642;SDS011;8435;52.184;5.406;2024-03-02T11:49:39;2.03;;;1.07;;
16642;SDS011;8435;52.184;5.406;2024-03-02T11:52:08;3.10;;;1.50;;
16642;SDS011;8435;52.184;5.406;2024-03-02T11:54:36;1.57;;;0.90;;
16642;SDS011;8435;52.184;5.406;2024-03-02T11:57:06;2.37;;;1.10;;
16642;SDS011;8435;52.184;5.406;2024-03-02T11:59:33;1.50;;;0.60;;
16642;SDS011;8435;52.184;5.406;2024-03-02T12:02:01;2.27;;;0.67;;
16642;SDS011;8435;52.184;5.406;2024-03-02T12:04:28;1.67;;;0.63;;
16642;SDS011;8435;52.184;5.406;2024-03-02T12:06:56;2.07;;;0.77;;
16642;SDS011;8435;52.184;5.406;2024-03-02T12:09:25;0.63;;;0.50;;
16642;SDS011;8435;52.184;5.406;2024-03-02T12:12:02;1.47;;;0.60;;
16642;SDS011;8435;52.184;5.406;2024-03-02T12:14:31;1.33;;;0.63;;
16642;SDS011;8435;52.184;5.406;2024-03-02T12:16:58;1.33;;;0.60;;
16642;SDS011;8435;52.184;5.406;2024-03-02T12:19:25;1.03;;;0.57;;
16642;SDS011;8435;52.184;5.406;2024-03-02T12:21:54;1.83;;;0.60;;
16642;SDS011;8435;52.184;5.406;2024-03-02T12:24:22;1.47;;;0.80;;
16642;SDS011;8435;52.184;5.406;2024-03-02T12:26:50;2.50;;;0.53;;
16642;SDS011;8435;52.184;5.406;2024-03-02T12:29:18;1.73;;;0.90;;
16642;SDS011;8435;52.184;5.406;2024-03-02T12:31:48;2.67;;;0.80;;
16642;SDS011;8435;52.184;5.406;2024-03-02T12:34:16;2.57;;;0.70;;
16642;SDS011;8435;52.184;5.406;2024-03-02T12:36:43;1.10;;;0.70;;
16642;SDS011;8435;52.184;5.406;2024-03-02T12:39:12;2.17;;;0.93;;
16642;SDS011;8435;52.184;5.406;2024-03-02T12:41:41;1.47;;;1.00;;
16642;SDS011;8435;52.184;5.406;2024-03-02T12:44:11;2.10;;;0.93;;
16642;SDS011;8435;52.184;5.406;2024-03-02T12:46:37;2.60;;;1.00;;
16642;SDS011;8435;52.184;5.406;2024-03-02T12:49:07;0.83;;;0.60;;
16642;SDS011;8435;52.184;5.406;2024-03-02T12:51:36;1.80;;;0.80;;
16642;SDS011;8435;52.184;5.406;2024-03-02T12:54:03;1.73;;;0.73;;
16642;SDS011;8435;52.184;5.406;2024-03-02T12:56:30;1.27;;;0.80;;
16642;SDS011;8435;52.184;5.406;2024-03-02T12:58:58;3.60;;;1.57;;
16642;SDS011;8435;52.184;5.406;2024-03-02T13:01:28;1.67;;;0.80;;
16642;SDS011;8435;52.184;5.406;2024-03-02T13:03:59;1.60;;;0.90;;
16642;SDS011;8435;52.184;5.406;2024-03-02T13:06:27;2.23;;;1.20;;
16642;SDS011;8435;52.184;5.406;2024-03-02T13:08:54;2.13;;;0.97;;
16642;SDS011;8435;52.184;5.406;2024-03-02T13:11:22;2.23;;;1.10;;
16642;SDS011;8435;52.184;5.406;2024-03-02T13:13:49;3.00;;;1.20;;
16642;SDS011;8435;52.184;5.406;2024-03-02T13:16:16;2.50;;;1.13;;
16642;SDS011;8435;52.184;5.406;2024-03-02T13:18:45;3.03;;;1.10;;
16642;SDS011;8435;52.184;5.406;2024-03-02T13:21:12;2.93;;;1.17;;
16642;SDS011;8435;52.184;5.406;2024-03-02T13:23:40;3.23;;;1.10;;
16642;SDS011;8435;52.184;5.406;2024-03-02T13:26:07;2.67;;;1.40;;
16642;SDS011;8435;52.184;5.406;2024-03-02T13:28:35;2.27;;;1.07;;
16642;SDS011;8435;52.184;5.406;2024-03-02T13:31:03;2.27;;;1.30;;
16642;SDS011;8435;52.184;5.406;2024-03-02T13:33:31;2.17;;;1.20;;
16642;SDS011;8435;52.184;5.406;2024-03-02T13:35:58;2.77;;;1.40;;
16642;SDS011;8435;52.184;5.406;2024-03-02T13:38:25;1.90;;;1.47;;
16642;SDS011;8435;52.184;5.406;2024-03-02T13:40:53;1.13;;;1.00;;
16642;SDS011;8435;52.184;5.406;2024-03-02T13:43:20;1.10;;;1.00;;
16642;SDS011;8435;52.184;5.406;2024-03-02T13:45:48;3.47;;;1.20;;
16642;SDS011;8435;52.184;5.406;2024-03-02T13:48:17;3.53;;;1.40;;
16642;SDS011;8435;52.184;5.406;2024-03-02T13:50:44;2.37;;;1.20;;
16642;SDS011;8435;52.184;5.406;2024-03-02T13:53:11;1.30;;;1.03;;
16642;SDS011;8435;52.184;5.406;2024-03-02T13:55:38;2.57;;;1.00;;
16642;SDS011;8435;52.184;5.406;2024-03-02T13:58:08;1.87;;;1.27;;
16642;SDS011;8435;52.184;5.406;2024-03-02T14:00:35;2.00;;;1.20;;
16642;SDS011;8435;52.184;5.406;2024-03-02T14:03:02;1.20;;;0.90;;
16642;SDS011;8435;52.184;5.406;2024-03-02T14:05:29;3.33;;;1.30;;
16642;SDS011;8435;52.184;5.406;2024-03-02T14:07:56;1.87;;;1.20;;
16642;SDS011;8435;52.184;5.406;2024-03-02T14:10:23;5.73;;;1.20;;
16642;SDS011;8435;52.184;5.406;2024-03-02T14:12:54;1.83;;;1.20;;
16642;SDS011;8435;52.184;5.406;2024-03-02T14:15:23;2.57;;;1.23;;
16642;SDS011;8435;52.184;5.406;2024-03-02T14:17:50;1.43;;;1.07;;
16642;SDS011;8435;52.184;5.406;2024-03-02T14:20:17;2.57;;;1.53;;
16642;SDS011;8435;52.184;5.406;2024-03-02T14:22:47;2.70;;;1.27;;
16642;SDS011;8435;52.184;5.406;2024-03-02T14:25:14;1.80;;;1.60;;
16642;SDS011;8435;52.184;5.406;2024-03-02T14:27:42;3.03;;;1.63;;
16642;SDS011;8435;52.184;5.406;2024-03-02T14:30:09;3.37;;;1.40;;
16642;SDS011;8435;52.184;5.406;2024-03-02T14:32:38;1.97;;;1.50;;
16642;SDS011;8435;52.184;5.406;2024-03-02T14:35:05;3.17;;;1.60;;
16642;SDS011;8435;52.184;5.406;2024-03-02T14:37:35;2.47;;;1.10;;
16642;SDS011;8435;52.184;5.406;2024-03-02T14:40:02;2.63;;;1.30;;
16642;SDS011;8435;52.184;5.406;2024-03-02T14:42:31;2.07;;;1.20;;
16642;SDS011;8435;52.184;5.406;2024-03-02T14:44:58;2.27;;;0.80;;
16642;SDS011;8435;52.184;5.406;2024-03-02T14:47:26;4.37;;;1.33;;
16642;SDS011;8435;52.184;5.406;2024-03-02T14:49:54;1.47;;;1.10;;
16642;SDS011;8435;52.184;5.406;2024-03-02T14:52:21;3.47;;;1.53;;
16642;SDS011;8435;52.184;5.406;2024-03-02T14:54:57;2.70;;;1.70;;
16642;SDS011;8435;52.184;5.406;2024-03-02T14:57:35;3.23;;;0.90;;
16642;SDS011;8435;52.184;5.406;2024-03-02T15:00:03;1.80;;;1.20;;
16642;SDS011;8435;52.184;5.406;2024-03-02T15:03:06;2.73;;;1.03;;
16642;SDS011;8435;52.184;5.406;2024-03-02T15:05:54;1.07;;;0.97;;
16642;SDS011;8435;52.184;5.406;2024-03-02T15:08:21;2.43;;;1.00;;